Time;durP1;ratioP1;P1;durP2;ratioP2;P2;SDS_P1;SDS_P2;PMS_P1;PMS_P2;Temp;Humidity;BMP_temperature;BMP_pressure;BME280_temperature;BME280_humidity;BME280_pressure;Samples;Min_cycle;Max_cycle;Signal;HPM_P1;HPM_P2
2022/01/09 00:00:32;;;;;;;9.40;1.60;;;;;;;4.63;73.51;98779.06;6186159;23;20354;-76
2022/01/09 00:03:01;;;;;;;24.15;1.98;;;;;;;4.65;74.27;98783.16;6184371;23;20052;-75
2022/01/09 00:05:26;;;;;;;17.60;1.40;;;;;;;4.62;73.69;98788.31;6155177;23;20016;-77
2022/01/09 00:07:53;;;;;;;13.00;1.58;;;;;;;4.59;73.24;98776.09;6155461;23;20024;-76
2022/01/09 00:10:22;;;;;;;24.67;1.55;;;;;;;4.68;73.75;98782.63;6183585;23;20001;-75
2022/01/09 00:12:48;;;;;;;10.88;1.25;;;;;;;4.73;73.47;98773.69;6184391;23;20080;-76
2022/01/09 00:15:14;;;;;;;6.63;1.58;;;;;;;4.67;73.27;98782.88;6161449;23;20395;-76
2022/01/09 00:17:40;;;;;;;6.75;1.38;;;;;;;4.72;73.49;98789.13;6192128;23;20016;-76
2022/01/09 00:20:08;;;;;;;11.82;1.65;;;;;;;4.75;72.79;98793.19;6192164;23;20024;-75
2022/01/09 00:25:06;;;;;;;8.30;1.38;;;;;;;4.74;74.08;98801.59;6194866;23;20005;-76
2022/01/09 00:27:32;;;;;;;15.00;1.85;;;;;;;4.68;73.47;98801.56;6158093;23;20676;-76
2022/01/09 00:30:04;;;;;;;4.68;1.42;;;;;;;4.67;74.21;98805.38;6159006;23;20099;-74
2022/01/09 00:32:30;;;;;;;7.72;1.92;;;;;;;4.63;73.71;98801.56;6156948;23;20020;-75
2022/01/09 00:34:58;;;;;;;4.13;1.33;;;;;;;4.57;74.32;98796.41;6131280;23;20013;-74
2022/01/09 00:37:28;;;;;;;12.05;1.73;;;;;;;4.52;74.19;98794.50;6133782;23;20009;-74
2022/01/09 00:39:54;;;;;;;7.97;1.02;;;;;;;4.55;74.67;98794.75;6182418;23;20027;-75
2022/01/09 00:42:22;;;;;;;7.90;1.00;;;;;;;4.52;73.69;98806.13;6183388;23;20412;-74
2022/01/09 00:44:47;;;;;;;6.88;1.50;;;;;;;4.61;73.30;98814.53;6185419;23;20293;-74
2022/01/09 00:47:18;;;;;;;7.97;1.10;;;;;;;4.50;73.67;98775.00;6153848;23;20016;-74
2022/01/09 00:49:43;;;;;;;9.07;1.58;;;;;;;4.59;73.18;98794.25;6107580;23;20446;-74
2022/01/09 00:52:09;;;;;;;2.90;1.02;;;;;;;4.61;73.33;98809.13;6134008;23;20005;-75
2022/01/09 00:54:35;;;;;;;10.73;1.40;;;;;;;4.78;72.52;98808.13;6157119;23;20005;-74
2022/01/09 00:57:00;;;;;;;9.82;1.85;;;;;;;4.84;72.81;98807.03;6180862;23;20028;-75
2022/01/09 00:59:25;;;;;;;10.07;1.75;;;;;;;4.89;72.17;98793.50;6163152;23;20033;-74
2022/01/09 01:01:51;;;;;;;8.07;1.42;;;;;;;5.02;72.03;98803.81;6164715;23;20088;-74
2022/01/09 01:04:16;;;;;;;14.80;1.92;;;;;;;5.02;72.74;98825.50;6156627;23;20343;-74
2022/01/09 01:06:43;;;;;;;12.13;2.17;;;;;;;4.90;72.48;98811.38;6212370;23;20063;-74
2022/01/09 01:09:12;;;;;;;12.38;2.05;;;;;;;4.79;73.53;98815.13;6187439;23;20087;-74
2022/01/09 01:11:38;;;;;;;8.52;1.58;;;;;;;4.62;73.93;98804.56;6187003;23;20015;-75
2022/01/09 01:14:03;;;;;;;9.80;1.63;;;;;;;4.52;73.66;98799.91;6188034;23;20036;-74
2022/01/09 01:16:31;;;;;;;12.90;2.33;;;;;;;4.52;74.24;98810.75;6188117;23;20023;-75
2022/01/09 01:18:56;;;;;;;10.55;1.60;;;;;;;4.52;74.56;98837.81;6163471;23;20036;-74
2022/01/09 01:21:33;;;;;;;7.45;1.33;;;;;;;4.39;75.57;98822.06;6186825;23;20005;-75
2022/01/09 01:23:59;;;;;;;12.00;1.20;;;;;;;4.49;75.28;98836.44;6160621;23;20183;-74
2022/01/09 01:26:24;;;;;;;12.02;1.17;;;;;;;4.41;74.92;98842.38;6188556;23;20032;-74
2022/01/09 01:28:50;;;;;;;18.40;2.45;;;;;;;4.29;75.55;98828.22;6182593;23;20068;-75
2022/01/09 01:31:15;;;;;;;15.38;1.85;;;;;;;4.33;75.03;98835.56;6184646;23;20032;-75
2022/01/09 01:33:43;;;;;;;9.75;1.80;;;;;;;4.29;74.23;98826.34;6183680;23;20056;-73
2022/01/09 01:36:09;;;;;;;19.65;1.85;;;;;;;4.36;74.04;98840.44;6182786;23;20336;-74
2022/01/09 01:38:42;;;;;;;7.18;1.90;;;;;;;4.30;72.54;98825.25;6181823;23;20008;-73
2022/01/09 01:41:10;;;;;;;6.13;0.93;;;;;;;4.29;71.71;98834.47;6183723;23;20024;-74
2022/01/09 01:43:35;;;;;;;5.10;1.10;;;;;;;4.35;71.08;98830.72;6181900;23;20005;-73
2022/01/09 01:46:02;;;;;;;7.18;1.15;;;;;;;4.35;70.39;98825.31;6156356;23;20047;-74
2022/01/09 01:48:29;;;;;;;4.65;1.08;;;;;;;4.39;70.80;98816.66;6178887;23;20001;-74
2022/01/09 01:51:05;;;;;;;;;;;;;;;;;;;;;
2022/01/09 01:53:31;;;;;;;8.48;1.25;;;;;;;4.46;69.74;98828.84;6182493;23;20076;-75
2022/01/09 01:56:01;;;;;;;4.35;1.00;;;;;;;4.43;69.63;98823.97;6156870;23;20093;-74
2022/01/09 01:58:28;;;;;;;8.02;0.90;;;;;;;4.48;69.17;98831.28;6183338;23;20005;-74
2022/01/09 02:00:53;;;;;;;8.43;0.90;;;;;;;4.53;69.24;98828.63;6157223;23;20340;-72
2022/01/09 02:03:23;;;;;;;6.95;0.77;;;;;;;4.49;69.74;98843.75;6183095;23;20019;-74
2022/01/09 02:05:52;;;;;;;6.93;1.08;;;;;;;4.47;70.07;98848.63;6158714;23;20032;-74
2022/01/09 02:08:17;;;;;;;10.77;1.23;;;;;;;4.38;69.53;98837.50;6183060;23;20029;-73
2022/01/09 02:10:45;;;;;;;7.57;0.88;;;;;;;4.34;71.07;98842.59;6181766;23;20009;-78
2022/01/09 02:13:11;;;;;;;2.95;1.15;;;;;;;4.29;71.08;98845.31;6182709;23;20088;-75
2022/01/09 02:15:42;;;;;;;9.25;1.27;;;;;;;4.33;71.06;98857.22;6183439;23;20005;-75
2022/01/09 02:18:11;;;;;;;6.63;1.88;;;;;;;4.24;71.47;98864.22;6184536;23;20005;-76
2022/01/09 02:20:39;;;;;;;10.63;1.45;;;;;;;4.20;71.13;98865.81;6179621;23;20072;-75
2022/01/09 02:23:07;;;;;;;9.85;1.65;;;;;;;4.15;72.02;98866.59;6183136;23;20005;-74
2022/01/09 02:25:33;;;;;;;6.75;1.30;;;;;;;4.12;72.21;98861.72;6183764;23;20035;-74
2022/01/09 02:28:00;;;;;;;20.75;2.22;;;;;;;4.11;72.25;98864.69;6189186;23;20019;-74
2022/01/09 02:30:26;;;;;;;14.25;2.10;;;;;;;4.06;72.69;98864.63;6214616;23;20008;-73
2022/01/09 02:32:51;;;;;;;11.20;0.90;;;;;;;4.04;73.33;98864.91;6163257;23;20015;-75
2022/01/09 02:35:17;;;;;;;4.18;1.40;;;;;;;4.11;72.98;98872.78;6135048;23;20013;-75
2022/01/09 02:37:43;;;;;;;2.97;0.65;;;;;;;4.10;73.13;98873.84;6214147;23;20004;-74
2022/01/09 02:40:09;;;;;;;8.90;1.60;;;;;;;4.00;73.06;98878.13;6216499;23;20039;-76
2022/01/09 02:42:34;;;;;;;6.72;1.30;;;;;;;3.99;73.65;98881.91;6188386;23;20008;-75
2022/01/09 02:45:00;;;;;;;8.38;2.08;;;;;;;3.91;73.40;98876.16;6187385;23;20080;-75
2022/01/09 02:47:33;;;;;;;12.27;1.48;;;;;;;3.85;74.12;98872.63;6188697;23;20111;-74
2022/01/09 02:50:16;;;;;;;11.07;1.15;;;;;;;3.85;74.44;98864.50;6212960;23;20009;-76
2022/01/09 02:52:50;;;;;;;6.65;0.93;;;;;;;3.75;74.70;98875.25;6166126;23;20031;-75
2022/01/09 02:55:16;;;;;;;14.65;1.70;;;;;;;3.66;75.60;98872.19;6213961;23;20004;-75
2022/01/09 02:57:44;;;;;;;8.18;1.58;;;;;;;3.66;75.17;98891.97;6212686;23;20012;-75
2022/01/09 03:00:15;;;;;;;12.65;0.88;;;;;;;3.62;75.95;98877.31;6210887;23;20008;-75
2022/01/09 03:02:41;;;;;;;15.43;2.10;;;;;;;3.66;75.68;98894.66;6211443;23;20005;-74
2022/01/09 03:05:10;;;;;;;8.38;1.20;;;;;;;3.66;76.05;98902.78;6211867;23;20422;-74
2022/01/09 03:07:43;;;;;;;8.77;1.25;;;;;;;3.62;76.37;98912.47;6182329;23;20430;-75
2022/01/09 03:10:11;;;;;;;10.52;1.50;;;;;;;3.63;76.50;98897.06;6182451;23;20016;-74
2022/01/09 03:12:37;;;;;;;14.45;1.08;;;;;;;3.65;75.75;98911.13;6162096;23;20039;-75
2022/01/09 03:15:11;;;;;;;8.77;1.80;;;;;;;3.75;76.62;98907.69;6184989;23;20009;-73
2022/01/09 03:17:39;;;;;;;12.93;1.38;;;;;;;3.65;76.92;98895.72;6209920;23;20024;-75
2022/01/09 03:20:08;;;;;;;9.27;1.20;;;;;;;3.66;76.36;98891.13;6212778;23;20044;-74
2022/01/09 03:22:36;;;;;;;7.97;1.55;;;;;;;3.67;76.71;98896.28;6211440;23;20375;-74
2022/01/09 03:25:03;;;;;;;14.23;1.58;;;;;;;3.72;77.07;98909.00;6159828;23;20346;-73
2022/01/09 03:27:29;;;;;;;8.48;1.40;;;;;;;3.70;77.22;98908.47;6186937;23;20718;-73
2022/01/09 03:29:54;;;;;;;9.82;1.10;;;;;;;3.76;76.56;98912.03;6212882;23;20070;-73
2022/01/09 03:32:20;;;;;;;16.15;2.33;;;;;;;3.66;76.67;98915.47;6211412;23;20103;-75
2022/01/09 03:34:45;;;;;;;5.95;1.33;;;;;;;3.62;76.66;98907.06;6185049;23;20016;-73
2022/01/09 03:37:11;;;;;;;11.63;1.83;;;;;;;3.56;76.88;98912.66;6212149;23;20411;-74
2022/01/09 03:39:36;;;;;;;8.68;1.40;;;;;;;3.52;77.03;98911.53;6187395;23;20704;-73
2022/01/09 03:42:02;;;;;;;3.33;0.90;;;;;;;3.51;77.32;98916.16;6209355;23;20011;-74
2022/01/09 03:44:28;;;;;;;14.80;2.00;;;;;;;3.48;77.23;98922.88;6185400;23;20440;-73
2022/01/09 03:46:55;;;;;;;4.95;1.00;;;;;;;3.45;77.66;98917.19;6208976;23;20051;-74
2022/01/09 03:49:20;;;;;;;6.88;1.30;;;;;;;3.41;78.07;98921.47;6210787;23;20015;-71
2022/01/09 03:51:50;;;;;;;2.30;0.57;;;;;;;3.45;78.31;98917.19;6213481;23;20005;-72
2022/01/09 03:54:23;;;;;;;4.90;0.55;;;;;;;3.43;77.84;98913.91;6211682;23;20076;-70
2022/01/09 03:56:50;;;;;;;8.20;1.15;;;;;;;3.44;77.92;98916.34;6184665;23;20119;-71
2022/01/09 03:59:16;;;;;;;4.93;0.50;;;;;;;3.44;78.57;98910.94;6213114;23;20005;-72
2022/01/09 04:01:42;;;;;;;9.32;2.17;;;;;;;3.48;77.93;98905.84;6162004;23;20335;-71
2022/01/09 04:04:07;;;;;;;6.15;0.88;;;;;;;3.45;78.24;98898.25;6211921;23;20013;-71
2022/01/09 04:06:39;;;;;;;6.45;0.73;;;;;;;3.46;78.02;98899.88;6182762;23;20023;-72
2022/01/09 04:09:08;;;;;;;12.05;1.42;;;;;;;3.46;78.02;98903.41;6213694;23;20082;-71
2022/01/09 04:11:39;;;;;;;5.05;1.08;;;;;;;3.43;78.21;98903.09;6213393;23;20043;-72
2022/01/09 04:14:05;;;;;;;14.15;1.10;;;;;;;3.41;78.20;98913.34;6164569;23;20079;-71
2022/01/09 04:16:31;;;;;;;2.55;0.95;;;;;;;3.40;78.28;98909.00;6214591;23;20000;-72
2022/01/09 04:18:59;;;;;;;2.42;1.05;;;;;;;3.38;77.67;98916.56;6186931;23;20008;-72
2022/01/09 04:21:26;;;;;;;6.68;1.23;;;;;;;3.29;78.30;98911.63;6161104;23;20023;-72
2022/01/09 04:23:52;;;;;;;5.55;1.27;;;;;;;3.19;77.94;98906.09;6160068;23;20015;-72
2022/01/09 04:26:20;;;;;;;6.57;1.08;;;;;;;3.22;78.48;98908.28;6210752;23;20039;-71
2022/01/09 04:28:49;;;;;;;3.28;0.90;;;;;;;3.14;78.71;98900.66;6187112;23;20336;-71
2022/01/09 04:31:17;;;;;;;4.85;1.20;;;;;;;3.10;78.68;98894.13;6185686;23;20070;-72
2022/01/09 04:33:45;;;;;;;11.30;1.30;;;;;;;3.20;79.20;98898.81;6180752;23;20015;-71
2022/01/09 04:36:11;;;;;;;1.92;0.80;;;;;;;3.11;79.03;98895.75;6157288;23;20012;-72
2022/01/09 04:38:38;;;;;;;9.80;1.88;;;;;;;3.13;79.48;98901.72;6211916;23;20091;-71
2022/01/09 04:41:07;;;;;;;6.80;1.17;;;;;;;3.23;79.82;98912.63;6211372;23;20007;-73
2022/01/09 04:43:35;;;;;;;9.20;1.23;;;;;;;3.20;80.17;98905.06;6185114;23;20019;-72
2022/01/09 04:46:05;;;;;;;12.57;1.52;;;;;;;3.26;79.74;98904.03;6213303;23;20020;-73
2022/01/09 04:48:30;;;;;;;5.90;1.17;;;;;;;3.28;79.88;98893.75;6163557;23;20066;-72
2022/01/09 04:50:58;;;;;;;5.65;1.10;;;;;;;3.34;79.63;98902.75;6186058;23;20092;-73
2022/01/09 04:53:29;;;;;;;4.18;0.55;;;;;;;3.38;79.60;98894.94;6187237;23;20012;-72
2022/01/09 04:56:04;;;;;;;14.57;1.48;;;;;;;3.34;79.37;98915.44;6159925;23;20094;-72
2022/01/09 04:58:32;;;;;;;11.10;1.47;;;;;;;3.28;80.25;98906.47;6214216;23;20000;-74
2022/01/09 05:01:00;;;;;;;6.93;1.00;;;;;;;3.23;80.21;98885.63;6160711;23;20016;-76
2022/01/09 05:03:28;;;;;;;4.50;1.80;;;;;;;3.26;79.74;98909.44;6188371;23;20015;-76
2022/01/09 05:05:53;;;;;;;5.03;0.95;;;;;;;3.26;80.69;98895.91;6162243;23;20020;-74
2022/01/09 05:08:21;;;;;;;18.65;2.95;;;;;;;3.21;80.33;98905.84;6187842;23;20027;-74
2022/01/09 05:10:49;;;;;;;9.38;1.50;;;;;;;3.29;80.75;98910.81;6212847;23;20011;-75
2022/01/09 05:13:15;;;;;;;8.00;1.20;;;;;;;3.38;80.16;98911.16;6212059;23;20039;-75
2022/01/09 05:15:40;;;;;;;8.00;0.90;;;;;;;3.45;79.86;98917.19;6212556;23;20328;-74
2022/01/09 05:18:12;;;;;;;10.15;0.98;;;;;;;3.40;80.53;98903.59;6187574;23;20036;-75
2022/01/09 05:20:38;;;;;;;6.00;0.98;;;;;;;3.41;80.33;98897.94;6188587;23;20008;-74
2022/01/09 05:23:06;;;;;;;3.45;1.25;;;;;;;3.43;80.14;98903.94;6187766;23;20004;-75
2022/01/09 05:25:31;;;;;;;13.93;1.58;;;;;;;3.44;79.51;98910.13;6210862;23;20450;-74
2022/01/09 05:27:56;;;;;;;4.68;1.92;;;;;;;3.33;79.95;98903.84;6161996;23;20004;-75
2022/01/09 05:30:22;;;;;;;19.30;1.90;;;;;;;3.33;80.20;98925.44;6188069;23;20423;-75
2022/01/09 05:32:53;;;;;;;16.80;2.53;;;;;;;3.31;80.41;98916.75;6186111;23;20009;-75
2022/01/09 05:35:18;;;;;;;14.05;1.92;;;;;;;3.38;80.73;98935.47;6162184;23;20004;-75
2022/01/09 05:37:44;;;;;;;2.72;0.82;;;;;;;3.32;81.18;98935.41;6216152;23;20443;-76
2022/01/09 05:40:10;;;;;;;7.65;1.25;;;;;;;3.27;81.88;98921.03;6192307;23;20016;-74
2022/01/09 05:42:38;;;;;;;13.88;1.00;;;;;;;3.31;81.14;98939.22;6221167;23;20073;-75
2022/01/09 05:45:07;;;;;;;8.77;1.30;;;;;;;3.22;81.99;98935.31;6205952;23;20059;-76
2022/01/09 05:47:32;;;;;;;13.02;1.63;;;;;;;3.31;82.30;98939.22;6235301;23;19993;-74
2022/01/09 05:49:58;;;;;;;9.50;2.35;;;;;;;3.29;81.84;98935.13;6213038;23;20011;-74
2022/01/09 05:52:28;;;;;;;8.60;1.05;;;;;;;3.34;81.85;98929.75;6204779;23;20305;-74
2022/01/09 05:54:53;;;;;;;6.22;1.48;;;;;;;3.35;81.10;98928.69;6216970;23;20311;-75
2022/01/09 05:57:19;;;;;;;6.38;1.13;;;;;;;3.36;81.14;98918.69;6180120;23;20221;-76
2022/01/09 05:59:44;;;;;;;9.63;1.95;;;;;;;3.39;81.41;98935.22;6184209;23;20004;-76
2022/01/09 06:02:10;;;;;;;2.72;1.25;;;;;;;3.40;81.21;98941.44;6208541;23;20005;-74
2022/01/09 06:04:38;;;;;;;11.00;0.80;;;;;;;3.37;80.71;98942.75;6211024;23;20013;-74
2022/01/09 06:07:03;;;;;;;7.38;1.58;;;;;;;3.38;80.57;98949.00;6183491;23;20093;-73
2022/01/09 06:09:29;;;;;;;7.82;1.30;;;;;;;3.42;80.89;98950.13;6208814;23;20008;-74
2022/01/09 06:11:55;;;;;;;6.85;1.58;;;;;;;3.32;81.38;98962.44;6208646;23;20035;-75
2022/01/09 06:14:20;;;;;;;16.80;2.10;;;;;;;3.34;80.85;98953.28;6181966;23;20004;-73
2022/01/09 06:16:45;;;;;;;9.23;1.27;;;;;;;3.39;81.07;98953.31;6212200;23;20004;-74
2022/01/09 06:19:18;;;;;;;10.30;1.77;;;;;;;3.43;80.88;98946.31;6212658;23;20391;-75
2022/01/09 06:21:44;;;;;;;17.30;1.83;;;;;;;3.51;80.72;98953.19;6211348;23;20075;-74
2022/01/09 06:24:12;;;;;;;14.60;1.95;;;;;;;3.40;80.87;98955.78;6210957;23;20008;-75
2022/01/09 06:26:38;;;;;;;6.63;0.65;;;;;;;3.48;80.42;98959.91;6161274;23;20004;-75
2022/01/09 06:29:03;;;;;;;13.50;1.38;;;;;;;3.43;80.53;98949.03;6210389;23;20028;-75
2022/01/09 06:31:29;;;;;;;8.43;1.50;;;;;;;3.37;79.98;98948.16;6212149;23;20040;-75
2022/01/09 06:33:54;;;;;;;9.13;1.00;;;;;;;3.43;80.27;98963.38;6212718;23;20051;-76
2022/01/09 06:36:32;;;;;;;;;;;;;;;;;;;;;
2022/01/09 06:38:58;;;;;;;4.10;1.00;;;;;;;3.43;80.91;98954.44;6187144;23;20079;-75
2022/01/09 06:41:23;;;;;;;3.78;0.88;;;;;;;3.39;80.95;98956.00;6210961;23;20024;-75
2022/01/09 06:43:49;;;;;;;2.08;0.63;;;;;;;3.49;80.93;98956.94;6186301;23;20005;-76
2022/01/09 06:46:14;;;;;;;1.80;0.65;;;;;;;3.49;80.50;98956.94;6211903;23;20092;-76
2022/01/09 06:48:42;;;;;;;1.52;0.60;;;;;;;3.50;79.96;98968.56;6209199;23;20420;-75
2022/01/09 06:51:10;;;;;;;2.63;0.68;;;;;;;3.47;79.66;98985.28;6184103;23;20016;-76
2022/01/09 06:53:38;;;;;;;4.65;0.85;;;;;;;3.39;79.86;98983.03;6183464;23;20090;-76
2022/01/09 06:56:04;;;;;;;10.35;1.05;;;;;;;3.39;80.66;98983.03;6186735;23;20012;-75
2022/01/09 06:58:30;;;;;;;4.70;0.95;;;;;;;3.55;80.51;98987.56;6211008;23;20016;-75
2022/01/09 07:00:55;;;;;;;3.25;0.75;;;;;;;3.63;80.82;98981.66;6210299;23;20103;-74
2022/01/09 07:03:22;;;;;;;11.98;1.85;;;;;;;3.81;81.42;99010.25;6210290;23;19996;-74
2022/01/09 07:05:48;;;;;;;5.65;1.80;;;;;;;3.91;81.07;99000.59;6185581;23;20008;-74
2022/01/09 07:08:13;;;;;;;5.63;1.58;;;;;;;3.92;80.49;98999.50;6211489;23;20064;-74
2022/01/09 07:10:39;;;;;;;4.55;0.75;;;;;;;3.97;80.50;99010.38;6185413;23;20549;-75
2022/01/09 07:13:04;;;;;;;8.15;1.48;;;;;;;3.96;81.53;99023.09;6210956;23;20005;-74
2022/01/09 07:15:32;;;;;;;11.52;2.13;;;;;;;3.86;81.56;99003.25;6182967;23;20013;-75
2022/01/09 07:17:58;;;;;;;7.70;1.90;;;;;;;3.88;82.18;99004.59;6186421;23;20328;-75
2022/01/09 07:20:23;;;;;;;11.60;1.20;;;;;;;3.83;82.10;98999.16;6185782;23;20032;-74
2022/01/09 07:22:51;;;;;;;8.75;1.73;;;;;;;3.85;81.80;99007.84;6212276;23;20008;-76
2022/01/09 07:25:19;;;;;;;14.00;1.60;;;;;;;3.85;81.77;99013.25;6174740;23;20012;-76
2022/01/09 07:27:45;;;;;;;10.52;1.35;;;;;;;3.85;82.60;99021.34;6228502;23;20031;-75
2022/01/09 07:30:12;;;;;;;4.95;0.70;;;;;;;3.84;82.62;99022.41;6235346;23;20021;-76
2022/01/09 07:32:40;;;;;;;5.32;1.30;;;;;;;3.87;82.03;99012.97;6203090;23;20079;-77
2022/01/09 07:35:06;;;;;;;7.53;1.15;;;;;;;3.83;82.40;99004.56;6212036;23;20012;-75
2022/01/09 07:37:32;;;;;;;10.50;1.35;;;;;;;3.87;81.81;98999.47;6187235;23;20062;-75
2022/01/09 07:39:59;;;;;;;4.40;0.82;;;;;;;3.74;81.80;99006.09;6212088;23;20088;-75
2022/01/09 07:42:29;;;;;;;6.28;0.85;;;;;;;3.71;81.28;99022.84;6182756;23;20438;-74
2022/01/09 07:45:06;;;;;;;11.88;0.95;;;;;;;3.64;81.40;99034.66;6210259;23;20008;-74
2022/01/09 07:47:32;;;;;;;3.28;0.73;;;;;;;3.60;81.54;99033.53;6183062;23;20019;-75
2022/01/09 07:50:17;;;;;;;;;;;;;;;;;;;;;
2022/01/09 07:52:42;;;;;;;5.93;0.75;;;;;;;3.44;81.36;99023.63;6212028;23;20072;-76
2022/01/09 07:55:09;;;;;;;5.05;1.27;;;;;;;3.42;81.23;99031.19;6207728;23;20040;-75
2022/01/09 07:57:37;;;;;;;15.43;1.48;;;;;;;3.35;81.60;99030.56;6207878;23;20027;-77
2022/01/09 08:00:09;;;;;;;7.53;1.20;;;;;;;3.34;82.01;99039.75;6212135;23;20004;-75
2022/01/09 08:02:35;;;;;;;5.00;1.10;;;;;;;3.34;82.54;99031.63;6207903;23;20081;-76
2022/01/09 08:05:01;;;;;;;6.72;0.50;;;;;;;3.32;82.32;99032.69;6210638;23;20008;-74
2022/01/09 08:07:44;;;;;;;8.23;0.85;;;;;;;3.23;83.01;99034.22;6160585;23;20012;-76
2022/01/09 08:10:09;;;;;;;12.00;1.52;;;;;;;3.21;83.67;99022.03;6186174;23;19996;-77
2022/01/09 08:12:35;;;;;;;6.28;0.70;;;;;;;3.34;83.68;99045.16;6185704;23;20079;-74
2022/01/09 08:15:01;;;;;;;5.63;1.25;;;;;;;3.29;83.55;99033.19;6212630;23;20009;-75
2022/01/09 08:17:27;;;;;;;7.68;1.25;;;;;;;3.31;83.34;99025.69;6187948;23;20004;-77
2022/01/09 08:19:52;;;;;;;8.27;1.75;;;;;;;3.34;83.21;99039.75;6183629;23;20316;-75
2022/01/09 08:22:18;;;;;;;11.43;1.35;;;;;;;3.36;83.32;99043.00;6213882;23;19997;-75
2022/01/09 08:24:54;;;;;;;;;;;;;;;;;;;;;
2022/01/09 08:27:19;;;;;;;14.35;0.90;;;;;;;3.35;83.13;99046.78;6211442;23;20617;-76
2022/01/09 08:29:45;;;;;;;10.40;0.82;;;;;;;3.32;83.58;99048.91;6187893;23;20055;-76
2022/01/09 08:32:12;;;;;;;7.55;1.42;;;;;;;3.40;83.30;99044.13;6213045;23;20007;-76
2022/01/09 08:34:38;;;;;;;9.98;1.08;;;;;;;3.44;83.53;99072.28;6186745;23;20062;-75
2022/01/09 08:37:12;;;;;;;7.50;1.17;;;;;;;3.47;82.83;99066.38;6187156;23;20036;-76
2022/01/09 08:39:42;;;;;;;10.85;1.20;;;;;;;3.55;83.51;99065.94;6186831;23;20000;-76
2022/01/09 08:42:13;;;;;;;9.20;1.23;;;;;;;3.60;83.00;99048.97;6212240;23;19996;-76
2022/01/09 08:44:48;;;;;;;7.82;0.95;;;;;;;3.59;82.28;99056.25;6211514;23;20012;-75
2022/01/09 08:47:14;;;;;;;16.48;1.95;;;;;;;3.67;82.44;99082.03;6187378;23;20013;-77
2022/01/09 08:49:48;;;;;;;15.38;1.77;;;;;;;3.63;82.24;99057.34;6212158;23;20023;-77
2022/01/09 08:52:14;;;;;;;10.95;0.95;;;;;;;3.72;83.10;99057.72;6183033;23;20051;-76
2022/01/09 08:54:41;;;;;;;10.98;1.50;;;;;;;3.78;83.00;99058.59;6164426;23;20017;-76
2022/01/09 08:57:07;;;;;;;12.73;1.83;;;;;;;3.83;82.59;99047.84;6156335;23;20375;-77
2022/01/09 08:59:35;;;;;;;11.85;1.30;;;;;;;3.94;82.61;99060.41;6213390;23;20001;-76
2022/01/09 09:02:00;;;;;;;13.10;1.98;;;;;;;4.01;82.38;99071.81;6180271;23;20062;-75
2022/01/09 09:04:26;;;;;;;8.07;1.02;;;;;;;4.20;81.15;99071.44;6213640;23;20024;-76
2022/01/09 09:06:52;;;;;;;6.82;1.35;;;;;;;4.24;81.05;99083.41;6211824;23;20012;-75
2022/01/09 09:09:17;;;;;;;10.10;1.25;;;;;;;4.21;81.27;99070.38;6208826;23;20100;-75
2022/01/09 09:11:50;;;;;;;6.40;0.88;;;;;;;4.28;80.67;99068.28;6161610;23;20013;-77
2022/01/09 09:14:17;;;;;;;9.95;1.80;;;;;;;4.31;80.47;99056.94;6214061;23;20004;-77
2022/01/09 09:16:43;;;;;;;14.93;1.20;;;;;;;4.47;79.21;99067.91;6184882;23;20008;-78
2022/01/09 09:19:08;;;;;;;6.65;1.42;;;;;;;4.55;79.32;99070.09;6186320;23;20084;-77
2022/01/09 09:21:34;;;;;;;7.70;1.48;;;;;;;4.61;78.19;99063.66;6163494;23;20113;-76
2022/01/09 09:23:59;;;;;;;14.68;1.45;;;;;;;4.55;78.19;99048.44;6212752;23;20013;-76
2022/01/09 09:26:27;;;;;;;10.23;1.77;;;;;;;4.63;78.48;99066.94;6160876;23;20005;-75
2022/01/09 09:28:52;;;;;;;16.20;1.58;;;;;;;4.79;78.55;99069.72;6184781;23;20021;-75
2022/01/09 09:31:18;;;;;;;4.50;0.77;;;;;;;4.83;77.15;99054.59;6212657;23;20020;-76
2022/01/09 09:33:44;;;;;;;6.05;1.00;;;;;;;4.96;77.64;99078.50;6211604;23;20024;-75
2022/01/09 09:36:12;;;;;;;13.68;1.88;;;;;;;5.06;76.57;99075.03;6185226;23;20016;-75
2022/01/09 09:38:38;;;;;;;11.85;1.35;;;;;;;5.21;76.16;99080.56;6186200;23;20015;-76
2022/01/09 09:41:03;;;;;;;11.90;1.77;;;;;;;5.58;75.91;99081.53;6212969;23;20004;-74
2022/01/09 09:43:34;;;;;;;6.95;1.27;;;;;;;6.25;74.00;99062.66;6186975;23;20175;-76
2022/01/09 09:46:03;;;;;;;10.98;1.45;;;;;;;7.18;72.10;99073.44;6213641;23;20432;-77
2022/01/09 09:48:36;;;;;;;10.23;1.08;;;;;;;7.96;69.46;99088.34;6186371;23;20424;-77
2022/01/09 09:51:01;;;;;;;4.65;1.15;;;;;;;8.52;66.49;99090.69;6215686;23;20003;-76
2022/01/09 09:53:27;;;;;;;2.22;1.25;;;;;;;8.96;65.12;99088.13;6190134;23;20013;-77
2022/01/09 09:55:53;;;;;;;11.70;1.83;;;;;;;9.32;63.57;99090.47;6168975;23;20091;-75
2022/01/09 09:58:22;;;;;;;6.47;1.27;;;;;;;9.74;62.58;99091.63;6190489;23;20013;-74
2022/01/09 10:00:55;;;;;;;2.63;0.82;;;;;;;9.98;61.54;99107.94;6204330;23;20301;-76
2022/01/09 10:03:34;;;;;;;5.32;1.30;;;;;;;10.18;60.63;99095.91;6236107;23;19995;-75
2022/01/09 10:06:01;;;;;;;5.20;1.13;;;;;;;10.36;59.52;99118.88;6233067;23;20019;-75
2022/01/09 10:08:40;;;;;;;6.18;1.33;;;;;;;10.52;58.71;99100.34;6218701;23;20008;-79
2022/01/09 10:11:28;;;;;;;;;;;;;;;;;;;;;
2022/01/09 10:14:10;;;;;;;5.05;1.63;;;;;;;11.13;57.28;99109.41;6215296;23;20072;-78
2022/01/09 10:16:45;;;;;;;9.57;1.80;;;;;;;11.41;56.00;99114.91;6214817;23;20000;-77
2022/01/09 10:19:13;;;;;;;7.90;1.70;;;;;;;11.65;55.80;99113.88;6188346;23;20000;-79
2022/01/09 10:21:38;;;;;;;4.93;1.10;;;;;;;11.94;54.63;99126.47;6162591;23;20007;-78
2022/01/09 10:24:15;;;;;;;4.45;1.15;;;;;;;12.25;54.18;99132.09;6136927;23;20008;-79
2022/01/09 10:26:58;;;;;;;;;;;;;;;;;;;;;
2022/01/09 10:29:30;;;;;;;6.63;0.88;;;;;;;12.44;53.24;99131.13;6214111;23;20100;-79
2022/01/09 10:31:55;;;;;;;4.15;1.20;;;;;;;12.57;52.87;99138.47;6187585;23;20001;-79
2022/01/09 10:34:28;;;;;;;5.90;1.40;;;;;;;12.68;52.43;99119.88;6162111;23;20055;-76
2022/01/09 10:36:54;;;;;;;8.75;1.65;;;;;;;12.70;51.66;99121.19;6184371;23;20096;-75
2022/01/09 10:39:40;;;;;;;5.40;1.48;;;;;;;12.79;51.88;99113.00;6137904;23;20091;-76
2022/01/09 10:42:05;;;;;;;;;;;;;;;13.10;50.32;99124.00;6189226;23;20419;-76
2022/01/09 10:44:39;;;;;;;9.98;1.45;;;;;;;13.19;50.46;99115.81;6212190;23;19958;-75
2022/01/09 10:47:12;;;;;;;5.22;1.50;;;;;;;13.37;49.51;99113.97;6184344;23;20067;-76
2022/01/09 10:50:00;;;;;;;7.05;1.73;;;;;;;14.01;49.83;99128.41;6185362;23;20054;-75
2022/01/09 10:52:31;;;;;;;3.45;0.98;;;;;;;14.57;49.62;99134.09;6184139;23;20008;-77
2022/01/09 10:55:03;;;;;;;7.97;1.52;;;;;;;15.12;47.50;99138.91;6186343;23;20004;-75
2022/01/09 10:57:40;;;;;;;2.85;1.30;;;;;;;15.64;45.73;99153.66;6207965;23;20028;-74
2022/01/09 11:03:26;;;;;;;10.73;1.65;;;;;;;15.83;42.51;99158.78;6034306;23;20145;-76
2022/01/09 11:05:52;;;;;;;9.85;1.70;;;;;;;15.49;43.08;99153.06;6033930;23;20495;-75
2022/01/09 11:08:22;;;;;;;8.52;1.55;;;;;;;15.49;44.24;99136.53;6116800;23;20028;-75
2022/01/09 11:10:48;;;;;;;4.20;2.40;;;;;;;15.78;44.12;99157.00;6158039;23;20012;-76
2022/01/09 11:13:16;;;;;;;8.73;1.65;;;;;;;15.92;42.06;99150.47;6213120;23;20000;-73
2022/01/09 11:21:59;;;;;;;12.98;1.73;;;;;;;13.01;47.24;99136.88;6092189;23;20010;-78
2022/01/09 11:24:46;;;;;;;8.00;1.35;;;;;;;12.11;49.94;99158.72;6197051;23;20009;-76
2022/01/09 11:27:27;;;;;;;9.63;2.17;;;;;;;11.28;52.49;99160.31;6186257;23;20005;-74
2022/01/09 11:30:14;;;;;;;8.25;1.52;;;;;;;10.91;53.98;99162.03;6186076;23;20095;-75
2022/01/09 11:36:27;;;;;;;7.78;1.50;;;;;;;11.53;53.30;99156.28;6191972;23;20008;-78
2022/01/09 11:39:24;;;;;;;10.85;1.42;;;;;;;12.17;51.94;99146.53;6211010;23;20035;-79
2022/01/09 11:42:09;;;;;;;4.55;1.15;;;;;;;12.31;50.87;99163.75;6210672;23;20000;-76
2022/01/09 11:44:50;;;;;;;2.88;0.95;;;;;;;12.24;52.22;99146.94;6212415;23;20000;-73
2022/01/09 11:47:16;;;;;;;5.80;1.83;;;;;;;12.25;52.34;99145.81;6185438;23;20028;-72
2022/01/09 11:53:05;;;;;;;9.98;2.15;;;;;;;12.04;53.14;99168.16;6214033;23;20004;-73
2022/01/09 11:55:50;;;;;;;10.27;1.60;;;;;;;11.83;53.35;99142.28;6213435;23;20059;-72
2022/01/09 11:58:19;;;;;;;5.13;2.00;;;;;;;11.51;54.68;99141.28;6184410;23;20004;-73
2022/01/09 12:01:18;;;;;;;;;;;;;;;;;;;;;
2022/01/09 12:03:44;;;;;;;9.48;1.85;;;;;;;13.41;51.93;99145.16;6217655;23;20076;-78
2022/01/09 12:07:10;;;;;;;4.60;1.25;;;;;;;14.35;49.79;99149.59;6191460;23;20016;-77
2022/01/09 12:09:51;;;;;;;4.78;1.55;;;;;;;14.92;47.95;99142.34;6187413;23;20005;-77
2022/01/09 12:19:04;;;;;;;8.00;1.20;;;;;;;12.92;50.40;99155.19;6215326;23;20602;-78